Impacts METAR Board
IDs:

KSEA - Seattle-Tacoma Intl, WA, US

Updated at: 0800 UTC 23 Oct 2018
Potential Impact None Slight Moderate High
Time 22/20Z 22/21Z 22/22Z 22/23Z 23/00Z 23/01Z 23/02Z 23/03Z 23/04Z 23/05Z 23/06Z 23/07Z 23/08Z
Temp51 52 51 50 50 49 47 46 46 44 45 43 44
Dewpt48 49 49 48 48 47 45 44 44 42 43 42 42
Altim29.96 29.94 29.92 29.91 29.89 29.89 29.89 29.89 29.88 29.88 29.88 29.87 29.88
VIS0.25 1.75 2 1.25 2 0.75 2 5 4 2 2 2 0.25
CIG2 3 -- 2 -- 2 -- -- -- -- -- -- 1
CoverOVCBKNFEWBKNSCTBKNFEWFEWCLRCLRCLRSCTOVX
FltCatLIFRLIFRIFRLIFRIFRLIFRIFRMVFRMVFRIFRIFRIFRLIFR
WXBRBRBRBRBRBRBRBRBRBRBRBRFG
WDir3100240270000002800170200
WSpd3 3 4 3 0 0 0 0 0 4 0 3 3
WGst-- -- -- -- -- -- -- -- -- -- -- -- --
Raw hourly METARs
KSEA 221953Z 31003KT 1/4SM BR OVC002 11/09 A2996 RMK AO2 SFC VIS 3/4 SLP152 T01060089 RVRNO
KSEA 222053Z VRB03KT 1 3/4SM BR BKN003 11/09 A2994 RMK AO2 TWR VIS 2 SLP145 T01110094 58016
KSEA 222153Z 24004KT 2SM BR FEW005 11/09 A2992 RMK AO2 SFC VIS 2 1/2 SLP138 T01060094
KSEA 222253Z 27003KT 1 1/4SM BR BKN002 10/09 A2991 RMK AO2 TWR VIS 2 SLP134 T01000089
KSEA 230003Z 00000KT 2SM BR SCT002 10/09 A2989 RMK AO2 T01000089
KSEA 230053Z 00000KT 3/4SM BR BKN002 09/08 A2989 RMK AO2 TWR VIS 2 SLP128 T00940083 RVRNO
KSEA 230153Z COR 00000KT 2SM BR FEW000 08/07 A2989 RMK AO2 TWR VIS 10 SLP129 BR FEW000 T00830072
KSEA 230253Z 00000KT 5SM BR FEW001 08/07 A2989 RMK AO2 SLP129 T00780067 56002
KSEA 230353Z 00000KT 4SM BR CLR 08/07 A2988 RMK AO2 SLP127 T00780067
KSEA 230453Z 28004KT 2SM BR CLR 07/06 A2988 RMK AO2 SLP127 VIS W 1/2 T00670056
KSEA 230553Z 00000KT 2SM BR CLR 07/06 A2988 RMK AO2 SLP124 T00720061 10100 20067 58003
KSEA 230653Z 17003KT 2SM BR SCT001 06/06 A2987 RMK AO2 SLP124 T00610056
KSEA 230759Z 20003KT 1/4SM FG VV001 07/06 A2988 RMK AO2 TWR VIS 2 T00670056 RVRNO



Page loaded:  08:24 UTC  |   01:24 AM Pacific  |   02:24 AM Mountain  |   03:24 AM Central  |   04:24 AM Eastern

 

ADVISORIES

FORECASTS

FORECASTS

OBSERVATIONS

USER TOOLS

ABOUT US